createdAt,value
2022-10-19T00:00:46.192Z,283.00
2022-10-19T00:01:46.296Z,294.00
2022-10-19T00:02:46.162Z,293.00
2022-10-19T00:03:46.237Z,298.00
2022-10-19T00:04:46.154Z,297.00
2022-10-19T00:05:46.173Z,296.00
2022-10-19T00:06:46.168Z,303.00
2022-10-19T00:07:46.108Z,307.00
2022-10-19T00:08:46.253Z,302.00
2022-10-19T00:09:46.182Z,294.00
2022-10-19T00:10:46.228Z,300.00
2022-10-19T00:11:46.465Z,299.00
2022-10-19T00:12:46.052Z,310.00
2022-10-19T00:13:46.022Z,303.00
2022-10-19T00:14:46.035Z,301.00
2022-10-19T00:15:46.058Z,299.00
2022-10-19T00:16:46.023Z,300.00
2022-10-19T00:17:45.992Z,297.00
2022-10-19T00:18:45.986Z,297.00
2022-10-19T00:19:45.987Z,297.00
2022-10-19T00:20:46.277Z,292.00
2022-10-19T00:21:46.000Z,296.00
2022-10-19T00:22:45.916Z,300.00
2022-10-19T00:23:45.910Z,298.00
2022-10-19T00:24:45.876Z,295.00
2022-10-19T00:25:45.889Z,295.00
2022-10-19T00:26:45.882Z,291.00
2022-10-19T00:27:45.865Z,290.00
2022-10-19T00:28:45.933Z,288.00
2022-10-19T00:29:45.842Z,290.00
2022-10-19T00:30:45.886Z,288.00
2022-10-19T00:31:45.817Z,291.00
2022-10-19T00:32:45.771Z,291.00
2022-10-19T00:33:45.754Z,290.00
2022-10-19T00:34:45.753Z,287.00
2022-10-19T00:35:45.785Z,285.00
2022-10-19T00:36:45.709Z,295.00
2022-10-19T00:37:45.708Z,292.00
2022-10-19T00:38:45.741Z,306.00
2022-10-19T00:39:45.829Z,306.00
2022-10-19T00:40:45.725Z,309.00
2022-10-19T00:41:45.658Z,314.00
2022-10-19T00:42:45.687Z,309.00
2022-10-19T00:43:45.642Z,311.00
2022-10-19T00:44:45.667Z,322.00
2022-10-19T00:45:45.616Z,317.00
2022-10-19T00:46:45.592Z,310.00
2022-10-19T00:47:45.636Z,312.00
2022-10-19T00:48:45.654Z,316.00
2022-10-19T00:49:45.580Z,315.00
2022-10-19T00:50:45.577Z,315.00
2022-10-19T00:51:45.669Z,318.00
2022-10-19T00:52:45.610Z,318.00
2022-10-19T00:53:45.589Z,329.00
2022-10-19T00:54:45.591Z,333.00
2022-10-19T00:55:45.531Z,329.00
2022-10-19T00:56:45.575Z,318.00
2022-10-19T00:57:45.571Z,326.00
2022-10-19T00:58:45.480Z,328.00
2022-10-19T00:59:45.440Z,327.00
2022-10-19T01:00:45.508Z,321.00
2022-10-19T01:01:45.504Z,313.00
2022-10-19T01:02:45.417Z,314.00
2022-10-19T01:03:45.509Z,312.00
2022-10-19T01:04:45.513Z,315.00
2022-10-19T01:05:45.474Z,315.00
2022-10-19T01:06:45.625Z,309.00
2022-10-19T01:07:45.564Z,309.00
2022-10-19T01:08:45.556Z,317.00
2022-10-19T01:09:46.182Z,330.00
2022-10-19T01:10:45.444Z,323.00
2022-10-19T01:11:45.369Z,325.00
2022-10-19T01:12:45.771Z,324.00
2022-10-19T01:13:45.438Z,331.00
2022-10-19T01:14:45.309Z,332.00
2022-10-19T01:15:45.346Z,329.00
2022-10-19T01:16:45.337Z,330.00
2022-10-19T01:17:45.247Z,330.00
2022-10-19T01:18:45.290Z,337.00
2022-10-19T01:19:45.264Z,336.00
2022-10-19T01:20:45.203Z,339.00
2022-10-19T01:21:45.229Z,335.00
2022-10-19T01:22:46.137Z,335.00
2022-10-19T01:23:45.107Z,333.00
2022-10-19T01:24:45.166Z,337.00
2022-10-19T01:25:45.083Z,339.00
2022-10-19T01:26:45.062Z,342.00
2022-10-19T01:27:45.050Z,349.00
2022-10-19T01:28:45.145Z,345.00
2022-10-19T01:29:45.052Z,355.00
2022-10-19T01:30:45.043Z,351.00
2022-10-19T01:31:45.036Z,349.00
2022-10-19T01:32:45.006Z,342.00
2022-10-19T01:33:44.979Z,345.00
2022-10-19T01:34:44.953Z,345.00
2022-10-19T01:35:44.950Z,347.00
2022-10-19T01:36:45.017Z,362.00
2022-10-19T01:37:44.955Z,352.00
2022-10-19T01:38:44.937Z,341.00
2022-10-19T01:39:47.707Z,298.00
2022-10-19T01:40:44.896Z,286.00
2022-10-19T01:41:45.100Z,289.00
2022-10-19T01:42:44.942Z,284.00
2022-10-19T01:43:44.934Z,283.00
2022-10-19T01:44:44.884Z,297.00
2022-10-19T01:45:45.721Z,303.00
2022-10-19T01:46:44.967Z,298.00
2022-10-19T01:47:44.786Z,300.00
2022-10-19T01:48:44.790Z,301.00
2022-10-19T01:49:44.828Z,313.00
2022-10-19T01:50:44.770Z,340.00
2022-10-19T01:51:44.740Z,341.00
2022-10-19T01:52:44.771Z,347.00
2022-10-19T01:53:44.694Z,354.00
2022-10-19T01:54:44.693Z,350.00
2022-10-19T01:55:44.699Z,343.00
2022-10-19T01:56:44.693Z,341.00
2022-10-19T01:57:44.660Z,338.00
2022-10-19T01:58:44.635Z,343.00
2022-10-19T01:59:44.615Z,342.00
2022-10-19T02:00:44.677Z,340.00
2022-10-19T02:01:44.616Z,333.00
2022-10-19T02:02:44.661Z,339.00
2022-10-19T02:03:44.589Z,329.00
2022-10-19T02:04:44.589Z,331.00
2022-10-19T02:05:44.558Z,329.00
2022-10-19T02:06:44.527Z,319.00
2022-10-19T02:07:44.511Z,317.00
2022-10-19T02:08:44.519Z,311.00
2022-10-19T02:09:44.524Z,312.00
2022-10-19T02:10:44.488Z,308.00
2022-10-19T02:11:47.942Z,305.00
2022-10-19T02:12:44.867Z,305.00
2022-10-19T02:13:44.842Z,309.00
2022-10-19T02:14:44.815Z,314.00
2022-10-19T02:15:44.444Z,309.00
2022-10-19T02:16:44.419Z,306.00
2022-10-19T02:17:44.743Z,303.00
2022-10-19T02:18:44.511Z,301.00
2022-10-19T02:19:44.558Z,302.00
2022-10-19T02:20:44.358Z,306.00
2022-10-19T02:21:44.364Z,307.00
2022-10-19T02:22:44.354Z,309.00
2022-10-19T02:23:44.330Z,309.00
2022-10-19T02:24:44.345Z,304.00
2022-10-19T02:25:44.308Z,302.00
2022-10-19T02:26:44.311Z,298.00
2022-10-19T02:27:44.332Z,306.00
2022-10-19T02:28:45.152Z,308.00
2022-10-19T02:29:44.255Z,310.00
2022-10-19T02:30:44.347Z,306.00
2022-10-19T02:31:44.248Z,304.00
2022-10-19T02:32:44.249Z,308.00
2022-10-19T02:33:44.311Z,306.00
2022-10-19T02:34:44.452Z,306.00
2022-10-19T02:35:44.152Z,306.00
2022-10-19T02:36:44.229Z,314.00
2022-10-19T02:37:44.519Z,312.00
2022-10-19T02:38:44.236Z,305.00
2022-10-19T02:39:44.116Z,309.00
2022-10-19T02:40:44.158Z,304.00
2022-10-19T02:41:44.225Z,295.00
2022-10-19T02:42:44.141Z,297.00
2022-10-19T02:43:44.114Z,305.00
2022-10-19T02:44:44.032Z,302.00
2022-10-19T02:45:44.062Z,287.00
2022-10-19T02:46:44.044Z,289.00
2022-10-19T02:47:44.150Z,292.00
2022-10-19T02:48:43.989Z,296.00
2022-10-19T02:49:44.063Z,298.00
2022-10-19T02:50:44.063Z,300.00
2022-10-19T02:51:43.975Z,299.00
2022-10-19T02:52:44.003Z,300.00
2022-10-19T02:53:43.951Z,298.00
2022-10-19T02:54:43.933Z,298.00
2022-10-19T02:55:43.905Z,303.00
2022-10-19T02:56:43.882Z,308.00
2022-10-19T02:57:44.334Z,310.00
2022-10-19T02:58:43.925Z,326.00
2022-10-19T02:59:43.946Z,336.00
2022-10-19T03:00:43.867Z,347.00
2022-10-19T03:01:44.154Z,347.00
2022-10-19T03:02:44.717Z,346.00
2022-10-19T03:03:43.909Z,340.00
2022-10-19T03:04:44.795Z,336.00
2022-10-19T03:05:43.914Z,333.00
2022-10-19T03:06:43.898Z,333.00
2022-10-19T03:07:43.833Z,331.00
2022-10-19T03:08:44.036Z,339.00
2022-10-19T03:09:43.750Z,331.00
2022-10-19T03:10:43.799Z,328.00
2022-10-19T03:11:43.828Z,329.00
2022-10-19T03:12:43.682Z,335.00
2022-10-19T03:13:43.938Z,330.00
2022-10-19T03:14:43.656Z,328.00
2022-10-19T03:15:43.655Z,341.00
2022-10-19T03:16:43.669Z,343.00
2022-10-19T03:17:43.645Z,343.00
2022-10-19T03:18:43.606Z,349.00
2022-10-19T03:19:43.590Z,341.00
2022-10-19T03:20:43.574Z,333.00
2022-10-19T03:21:43.538Z,333.00
2022-10-19T03:22:43.666Z,324.00
2022-10-19T03:23:43.556Z,317.00
2022-10-19T03:24:43.509Z,320.00
2022-10-19T03:25:43.545Z,318.00
2022-10-19T03:26:43.529Z,319.00
2022-10-19T03:27:43.460Z,314.00
2022-10-19T03:28:43.563Z,313.00
2022-10-19T03:29:43.447Z,315.00
2022-10-19T03:30:43.459Z,311.00
2022-10-19T03:31:43.437Z,308.00
2022-10-19T03:32:43.406Z,305.00
2022-10-19T03:33:43.396Z,302.00
2022-10-19T03:34:43.401Z,304.00
2022-10-19T03:35:43.370Z,304.00
2022-10-19T03:36:43.387Z,304.00
2022-10-19T03:37:43.338Z,297.00
2022-10-19T03:38:43.324Z,298.00
2022-10-19T03:39:43.330Z,302.00
2022-10-19T03:40:43.335Z,302.00
2022-10-19T03:41:43.294Z,303.00
2022-10-19T03:42:43.287Z,304.00
2022-10-19T03:43:43.342Z,306.00
2022-10-19T03:44:43.342Z,296.00
2022-10-19T03:45:43.339Z,300.00
2022-10-19T03:46:43.275Z,303.00
2022-10-19T03:47:43.239Z,301.00
2022-10-19T03:48:43.363Z,303.00
2022-10-19T03:49:43.323Z,303.00
2022-10-19T03:50:43.285Z,304.00
2022-10-19T03:51:43.196Z,304.00
2022-10-19T03:52:43.155Z,305.00
2022-10-19T03:53:43.256Z,308.00
2022-10-19T03:54:43.337Z,309.00
2022-10-19T03:55:43.108Z,313.00
2022-10-19T03:56:43.275Z,309.00
2022-10-19T03:57:43.078Z,306.00
2022-10-19T03:58:43.056Z,303.00
2022-10-19T03:59:43.054Z,304.00
2022-10-19T04:00:43.096Z,301.00
2022-10-19T04:01:43.040Z,303.00
2022-10-19T04:02:43.019Z,300.00
2022-10-19T04:03:42.989Z,305.00
2022-10-19T04:04:42.995Z,293.00
2022-10-19T04:05:43.000Z,297.00
2022-10-19T04:06:42.979Z,301.00
2022-10-19T04:07:42.972Z,300.00
2022-10-19T04:08:42.970Z,305.00
2022-10-19T04:09:42.914Z,301.00
2022-10-19T04:10:42.901Z,300.00
2022-10-19T04:11:42.905Z,298.00
2022-10-19T04:12:42.875Z,296.00
2022-10-19T04:13:42.886Z,302.00
2022-10-19T04:14:56.726Z,303.00
2022-10-19T04:15:42.865Z,303.00
2022-10-19T04:16:42.841Z,303.00
2022-10-19T04:17:45.644Z,303.00
2022-10-19T04:18:42.829Z,303.00
2022-10-19T04:19:42.809Z,306.00
2022-10-19T04:20:42.771Z,312.00
2022-10-19T04:21:42.773Z,313.00
2022-10-19T04:22:42.743Z,316.00
2022-10-19T04:23:42.728Z,317.00
2022-10-19T04:24:42.712Z,314.00
2022-10-19T04:25:42.717Z,313.00
2022-10-19T04:26:42.684Z,313.00
2022-10-19T04:27:42.706Z,310.00
2022-10-19T04:28:42.738Z,312.00
2022-10-19T04:29:42.664Z,315.00
2022-10-19T04:30:42.654Z,318.00
2022-10-19T04:31:42.641Z,320.00
2022-10-19T04:32:42.619Z,320.00
2022-10-19T04:33:42.668Z,326.00
2022-10-19T04:34:42.611Z,330.00
2022-10-19T04:35:42.590Z,330.00
2022-10-19T04:36:42.599Z,331.00
2022-10-19T04:37:42.544Z,333.00
2022-10-19T04:38:42.560Z,334.00
2022-10-19T04:39:42.544Z,326.00
2022-10-19T04:40:42.502Z,323.00
2022-10-19T04:41:42.498Z,328.00
2022-10-19T04:42:42.479Z,318.00
2022-10-19T04:43:42.471Z,313.00
2022-10-19T04:44:42.489Z,311.00
2022-10-19T04:45:42.426Z,315.00
2022-10-19T04:46:42.443Z,312.00
2022-10-19T04:47:42.457Z,314.00
2022-10-19T04:48:42.415Z,304.00
2022-10-19T04:49:42.405Z,308.00
2022-10-19T04:50:42.386Z,311.00
2022-10-19T04:51:42.383Z,317.00
2022-10-19T04:52:42.380Z,318.00
2022-10-19T04:53:42.346Z,321.00
2022-10-19T04:54:42.335Z,323.00
2022-10-19T04:55:42.334Z,318.00
2022-10-19T04:56:42.307Z,321.00
2022-10-19T04:57:42.322Z,324.00
2022-10-19T04:58:42.292Z,321.00
2022-10-19T04:59:42.271Z,317.00
2022-10-19T05:00:42.321Z,315.00
2022-10-19T05:01:46.404Z,314.00
2022-10-19T05:02:42.222Z,309.00
2022-10-19T05:03:42.240Z,309.00
2022-10-19T05:04:45.124Z,310.00
2022-10-19T05:05:42.175Z,311.00
2022-10-19T05:06:42.186Z,312.00
2022-10-19T05:07:42.153Z,309.00
2022-10-19T05:08:42.127Z,305.00
2022-10-19T05:09:42.126Z,312.00
2022-10-19T05:10:44.292Z,314.00
2022-10-19T05:11:42.112Z,316.00
2022-10-19T05:12:42.101Z,316.00
2022-10-19T05:13:42.088Z,313.00
2022-10-19T05:14:42.973Z,307.00
2022-10-19T05:15:42.074Z,309.00
2022-10-19T05:16:42.050Z,306.00
2022-10-19T05:17:42.032Z,307.00
2022-10-19T05:18:42.016Z,305.00
2022-10-19T05:19:42.009Z,308.00
2022-10-19T05:20:41.972Z,306.00
2022-10-19T05:21:42.002Z,304.00
2022-10-19T05:22:41.964Z,303.00
2022-10-19T05:23:41.990Z,303.00
2022-10-19T05:24:41.915Z,298.00
2022-10-19T05:25:41.924Z,287.00
2022-10-19T05:26:41.911Z,295.00
2022-10-19T05:27:41.911Z,300.00
2022-10-19T05:28:41.887Z,292.00
2022-10-19T05:29:41.935Z,291.00
2022-10-19T05:30:45.424Z,290.00
2022-10-19T05:31:41.856Z,286.00
2022-10-19T05:32:41.816Z,289.00
2022-10-19T05:33:41.827Z,291.00
2022-10-19T05:34:41.799Z,288.00
2022-10-19T05:35:41.782Z,289.00
2022-10-19T05:36:41.774Z,286.00
2022-10-19T05:37:41.806Z,284.00
2022-10-19T05:38:41.746Z,285.00
2022-10-19T05:39:41.747Z,284.00
2022-10-19T05:40:41.725Z,286.00
2022-10-19T05:41:41.701Z,284.00
2022-10-19T05:42:41.701Z,283.00
2022-10-19T05:43:41.727Z,282.00
2022-10-19T05:44:41.684Z,284.00
2022-10-19T05:45:41.672Z,287.00
2022-10-19T05:46:41.640Z,284.00
2022-10-19T05:47:41.659Z,285.00
2022-10-19T05:48:41.625Z,281.00
2022-10-19T05:49:41.676Z,279.00
2022-10-19T05:50:41.595Z,284.00
2022-10-19T05:51:41.579Z,292.00
2022-10-19T05:52:41.592Z,329.00
2022-10-19T05:53:41.591Z,328.00
2022-10-19T05:54:41.565Z,328.00
2022-10-19T05:55:41.538Z,324.00
2022-10-19T05:56:41.563Z,328.00
2022-10-19T05:57:41.491Z,326.00
2022-10-19T05:58:41.487Z,323.00
2022-10-19T05:59:41.472Z,313.00
2022-10-19T06:00:41.452Z,313.00
2022-10-19T06:01:41.502Z,320.00
2022-10-19T06:02:41.483Z,331.00
2022-10-19T06:03:41.432Z,336.00
2022-10-19T06:04:41.445Z,318.00
2022-10-19T06:05:41.450Z,286.00
2022-10-19T06:06:41.376Z,271.00
2022-10-19T06:07:41.368Z,268.00
2022-10-19T06:08:41.345Z,279.00
2022-10-19T06:09:41.359Z,286.00
2022-10-19T06:10:41.320Z,281.00
2022-10-19T06:11:41.321Z,286.00
2022-10-19T06:12:41.318Z,297.00
2022-10-19T06:13:41.308Z,333.00
2022-10-19T06:14:41.325Z,339.00
2022-10-19T06:15:41.318Z,334.00
2022-10-19T06:16:41.316Z,327.00
2022-10-19T06:17:41.257Z,316.00
2022-10-19T06:18:41.842Z,310.00
2022-10-19T06:19:41.229Z,302.00
2022-10-19T06:20:41.234Z,293.00
2022-10-19T06:21:43.397Z,286.00
2022-10-19T06:22:41.195Z,283.00
2022-10-19T06:24:41.180Z,283.00
2022-10-19T06:25:41.183Z,283.00
2022-10-19T06:26:41.123Z,285.00
2022-10-19T06:27:41.191Z,281.00
2022-10-19T06:28:41.140Z,282.00
2022-10-19T06:29:41.153Z,279.00
2022-10-19T06:30:41.122Z,279.00
2022-10-19T06:31:41.111Z,281.00
2022-10-19T06:32:41.052Z,280.00
2022-10-19T06:33:41.170Z,280.00
2022-10-19T06:34:41.046Z,280.00
2022-10-19T06:35:41.010Z,279.00
2022-10-19T06:36:41.021Z,278.00
2022-10-19T06:37:40.990Z,278.00
2022-10-19T06:38:40.984Z,280.00
2022-10-19T06:39:41.040Z,280.00
2022-10-19T06:40:40.958Z,277.00
2022-10-19T06:41:40.929Z,274.00
2022-10-19T06:42:40.923Z,272.00
2022-10-19T06:43:40.893Z,270.00
2022-10-19T06:44:40.899Z,269.00
2022-10-19T06:45:40.856Z,272.00
2022-10-19T06:46:40.867Z,269.00
2022-10-19T06:47:40.910Z,273.00
2022-10-19T06:48:40.858Z,265.00
2022-10-19T06:49:40.891Z,269.00
2022-10-19T06:50:40.793Z,273.00
2022-10-19T06:51:40.802Z,282.00
2022-10-19T06:52:40.821Z,293.00
2022-10-19T06:53:40.773Z,284.00
2022-10-19T06:54:40.761Z,280.00
2022-10-19T06:55:40.748Z,279.00
2022-10-19T06:56:40.767Z,266.00
2022-10-19T06:57:40.749Z,258.00
2022-10-19T06:58:40.724Z,266.00
2022-10-19T06:59:40.704Z,270.00
2022-10-19T07:00:40.737Z,286.00
2022-10-19T07:01:40.711Z,271.00
2022-10-19T07:02:40.692Z,302.00
2022-10-19T07:03:40.646Z,285.00
2022-10-19T07:04:40.625Z,278.00
2022-10-19T07:05:40.597Z,310.00
2022-10-19T07:06:40.582Z,336.00
2022-10-19T07:07:40.604Z,306.00
2022-10-19T07:08:40.553Z,280.00
2022-10-19T07:09:40.566Z,289.00
2022-10-19T07:10:40.594Z,313.00
2022-10-19T07:11:45.645Z,299.00
2022-10-19T07:12:40.513Z,304.00
2022-10-19T07:13:40.524Z,312.00
2022-10-19T07:14:40.515Z,303.00
2022-10-19T07:15:40.487Z,284.00
2022-10-19T07:16:40.458Z,288.00
2022-10-19T07:17:40.493Z,297.00
2022-10-19T07:18:40.451Z,289.00
2022-10-19T07:19:40.406Z,287.00
2022-10-19T07:20:40.430Z,284.00
2022-10-19T07:21:40.397Z,283.00
2022-10-19T07:22:40.410Z,283.00
2022-10-19T07:23:40.436Z,282.00
2022-10-19T07:24:40.370Z,282.00
2022-10-19T07:25:40.365Z,286.00
2022-10-19T07:26:40.344Z,289.00
2022-10-19T07:27:40.640Z,291.00
2022-10-19T07:28:40.323Z,288.00
2022-10-19T07:29:40.300Z,288.00
2022-10-19T07:30:40.253Z,284.00
2022-10-19T07:31:40.290Z,272.00
2022-10-19T07:32:43.199Z,261.00
2022-10-19T07:33:40.272Z,236.00
2022-10-19T07:34:40.234Z,223.00
2022-10-19T07:35:40.196Z,225.00
2022-10-19T07:36:40.224Z,223.00
2022-10-19T07:37:40.193Z,224.00
2022-10-19T07:38:40.181Z,222.00
2022-10-19T07:39:40.225Z,222.00
2022-10-19T07:40:44.746Z,221.00
2022-10-19T07:41:40.146Z,226.00
2022-10-19T07:42:40.107Z,225.00
2022-10-19T07:43:40.115Z,221.00
2022-10-19T07:44:40.109Z,223.00
2022-10-19T07:45:40.065Z,227.00
2022-10-19T07:46:40.058Z,224.00
2022-10-19T07:47:40.040Z,224.00
2022-10-19T07:48:40.027Z,222.00
2022-10-19T07:49:40.033Z,220.00
2022-10-19T07:50:40.001Z,219.00
2022-10-19T07:51:40.066Z,222.00
2022-10-19T07:52:40.252Z,221.00
2022-10-19T07:53:39.987Z,224.00
2022-10-19T07:54:39.971Z,225.00
2022-10-19T07:55:39.975Z,235.00
2022-10-19T07:56:39.975Z,241.00
2022-10-19T07:57:41.571Z,250.00
2022-10-19T07:58:39.897Z,254.00
2022-10-19T07:59:39.901Z,260.00
2022-10-19T08:01:39.913Z,276.00
2022-10-19T08:02:59.789Z,289.00
2022-10-19T08:05:39.853Z,291.00
2022-10-19T08:06:39.795Z,284.00
2022-10-19T08:07:39.776Z,280.00
2022-10-19T08:08:39.818Z,278.00
2022-10-19T08:09:52.821Z,287.00
2022-10-19T08:10:39.753Z,280.00
2022-10-19T08:11:39.764Z,282.00
2022-10-19T08:12:39.761Z,284.00
2022-10-19T08:13:39.692Z,278.00
2022-10-19T08:14:39.680Z,268.00
2022-10-19T08:15:39.682Z,263.00
2022-10-19T08:16:39.675Z,273.00
2022-10-19T08:17:39.666Z,278.00
2022-10-19T08:18:39.685Z,274.00
2022-10-19T08:19:39.635Z,274.00
2022-10-19T08:20:39.639Z,269.00
2022-10-19T08:21:39.607Z,268.00
2022-10-19T08:22:39.610Z,274.00
2022-10-19T08:23:40.422Z,248.00
2022-10-19T08:24:39.562Z,271.00
2022-10-19T08:25:39.594Z,288.00
2022-10-19T08:26:39.530Z,283.00
2022-10-19T08:27:39.519Z,278.00
2022-10-19T08:28:39.534Z,280.00
2022-10-19T08:29:39.482Z,282.00
2022-10-19T08:30:39.506Z,291.00
2022-10-19T08:31:39.481Z,285.00
2022-10-19T08:32:39.467Z,283.00
2022-10-19T08:33:39.464Z,281.00
2022-10-19T08:34:39.448Z,264.00
2022-10-19T08:35:39.425Z,260.00
2022-10-19T08:36:39.429Z,252.00
2022-10-19T08:37:45.143Z,247.00
2022-10-19T08:38:39.405Z,238.00
2022-10-19T08:39:39.374Z,240.00
2022-10-19T08:40:39.363Z,239.00
2022-10-19T08:41:39.375Z,239.00
2022-10-19T08:42:39.344Z,251.00
2022-10-19T08:43:39.354Z,254.00
2022-10-19T08:44:39.343Z,261.00
2022-10-19T08:45:39.281Z,263.00
2022-10-19T08:46:39.305Z,267.00
2022-10-19T08:47:39.284Z,271.00
2022-10-19T08:48:39.265Z,277.00
2022-10-19T08:49:39.254Z,281.00
2022-10-19T08:50:39.237Z,271.00
2022-10-19T08:51:39.217Z,262.00
2022-10-19T08:52:39.253Z,277.00
2022-10-19T08:53:39.233Z,290.00
2022-10-19T08:54:39.226Z,281.00
2022-10-19T08:55:39.223Z,274.00
2022-10-19T08:56:50.593Z,275.00
2022-10-19T08:57:39.154Z,262.00
2022-10-19T08:58:39.135Z,278.00
2022-10-19T08:59:39.112Z,282.00
2022-10-19T09:01:39.093Z,291.00
2022-10-19T09:02:39.078Z,288.00
2022-10-19T09:03:55.735Z,290.00
2022-10-19T09:04:39.062Z,292.00
2022-10-19T09:05:39.030Z,293.00
2022-10-19T09:06:39.005Z,293.00
2022-10-19T09:07:39.037Z,295.00
2022-10-19T09:08:39.059Z,297.00
2022-10-19T09:09:39.018Z,301.00
2022-10-19T09:10:38.963Z,305.00
2022-10-19T09:11:38.945Z,304.00
2022-10-19T09:12:38.940Z,302.00
2022-10-19T09:13:41.637Z,301.00
2022-10-19T09:14:38.917Z,301.00
2022-10-19T09:15:38.873Z,302.00
2022-10-19T09:16:38.873Z,301.00
2022-10-19T09:17:38.847Z,299.00
2022-10-19T09:18:38.922Z,297.00
2022-10-19T09:19:38.841Z,296.00
2022-10-19T09:20:38.853Z,294.00
2022-10-19T09:21:44.593Z,294.00
2022-10-19T09:22:38.832Z,294.00
2022-10-19T09:23:38.767Z,296.00
2022-10-19T09:24:38.774Z,291.00
2022-10-19T09:25:38.758Z,290.00
2022-10-19T09:26:39.023Z,296.00
2022-10-19T09:27:38.716Z,291.00
2022-10-19T09:28:39.968Z,294.00
2022-10-19T09:29:38.747Z,297.00
2022-10-19T09:30:38.710Z,292.00
2022-10-19T09:31:40.612Z,292.00
2022-10-19T09:32:38.958Z,281.00
2022-10-19T09:33:38.736Z,255.00
2022-10-19T09:34:38.629Z,274.00
2022-10-19T09:35:38.658Z,275.00
2022-10-19T09:36:50.030Z,276.00
2022-10-19T09:37:38.602Z,271.00
2022-10-19T09:38:38.594Z,276.00
2022-10-19T09:39:39.957Z,279.00
2022-10-19T09:40:38.568Z,270.00
2022-10-19T09:41:38.532Z,253.00
2022-10-19T09:42:38.636Z,271.00
2022-10-19T09:43:38.542Z,273.00
2022-10-19T09:44:38.508Z,274.00
2022-10-19T09:45:38.498Z,269.00
2022-10-19T09:46:39.020Z,268.00
2022-10-19T09:47:38.780Z,266.00
2022-10-19T09:48:38.475Z,263.00
2022-10-19T09:49:38.496Z,249.00
2022-10-19T09:50:38.425Z,253.00
2022-10-19T09:51:38.401Z,261.00
2022-10-19T09:52:38.389Z,279.00
2022-10-19T09:53:38.383Z,279.00
2022-10-19T09:54:38.398Z,291.00
2022-10-19T09:55:38.459Z,281.00
2022-10-19T09:56:38.422Z,272.00
2022-10-19T09:57:38.332Z,278.00
2022-10-19T09:58:38.320Z,282.00
2022-10-19T09:59:38.293Z,287.00
2022-10-19T10:00:38.300Z,294.00
2022-10-19T10:01:43.067Z,299.00
2022-10-19T10:02:38.614Z,294.00
2022-10-19T10:03:38.273Z,293.00
2022-10-19T10:04:38.303Z,294.00
2022-10-19T10:05:38.244Z,298.00
2022-10-19T10:06:38.249Z,298.00
2022-10-19T10:07:38.221Z,299.00
2022-10-19T10:08:38.265Z,300.00
2022-10-19T10:09:38.203Z,303.00
2022-10-19T10:10:38.186Z,304.00
2022-10-19T10:11:38.192Z,304.00
2022-10-19T10:12:38.168Z,307.00
2022-10-19T10:13:38.119Z,306.00
2022-10-19T10:15:34.142Z,290.00
2022-10-19T10:16:46.463Z,295.00
2022-10-19T10:17:35.535Z,293.00
2022-10-19T10:18:35.412Z,294.00
2022-10-19T10:19:35.277Z,296.00
2022-10-19T10:20:35.264Z,294.00
2022-10-19T10:21:35.231Z,296.00
2022-10-19T10:22:35.531Z,295.00
2022-10-19T10:23:35.281Z,299.00
2022-10-19T10:24:37.231Z,298.00
2022-10-19T10:25:36.788Z,300.00
2022-10-19T10:27:37.707Z,299.00
2022-10-19T10:29:35.540Z,295.00
2022-10-19T10:30:07.162Z,294.00
2022-10-19T10:31:09.130Z,291.00
2022-10-19T10:32:34.480Z,292.00
2022-10-19T10:32:52.944Z,290.00
2022-10-19T10:34:07.532Z,292.00
2022-10-19T10:35:01.221Z,293.00
2022-10-19T10:35:51.763Z,295.00
2022-10-19T10:36:47.396Z,300.00
2022-10-19T10:37:47.064Z,305.00
2022-10-19T10:38:47.328Z,311.00
2022-10-19T10:39:48.837Z,315.00
2022-10-19T10:40:41.588Z,315.00
2022-10-19T10:41:42.421Z,314.00
2022-10-19T10:42:42.317Z,313.00
2022-10-19T10:43:43.652Z,314.00
2022-10-19T10:44:43.464Z,315.00
2022-10-19T10:45:43.319Z,314.00
2022-10-19T10:46:41.361Z,312.00
2022-10-19T10:47:41.939Z,312.00
2022-10-19T10:48:43.408Z,309.00
2022-10-19T10:49:42.368Z,307.00
2022-10-19T10:50:41.568Z,305.00
2022-10-19T10:51:41.471Z,305.00
2022-10-19T10:52:41.452Z,304.00
2022-10-19T10:53:43.550Z,305.00
2022-10-19T10:54:41.615Z,302.00
2022-10-19T10:55:41.038Z,302.00
2022-10-19T10:56:40.745Z,301.00
2022-10-19T10:57:40.730Z,302.00
2022-10-19T10:58:41.393Z,301.00
2022-10-19T10:59:43.184Z,300.00
2022-10-19T11:00:40.642Z,298.00
2022-10-19T11:01:40.624Z,296.00
2022-10-19T11:02:40.820Z,298.00
2022-10-19T11:03:42.121Z,301.00
2022-10-19T11:04:40.754Z,301.00
2022-10-19T11:05:40.728Z,302.00
2022-10-19T11:06:43.684Z,302.00
2022-10-19T11:07:40.764Z,305.00
2022-10-19T11:08:41.718Z,309.00
2022-10-19T11:09:41.414Z,305.00
2022-10-19T11:10:41.379Z,307.00
2022-10-19T11:11:40.613Z,306.00
2022-10-19T11:12:40.576Z,306.00
2022-10-19T11:13:41.491Z,312.00
2022-10-19T11:14:40.636Z,314.00
2022-10-19T11:15:40.504Z,314.00
2022-10-19T11:16:40.580Z,314.00
2022-10-19T11:17:40.537Z,314.00
2022-10-19T11:18:41.338Z,309.00
2022-10-19T11:19:40.855Z,307.00
2022-10-19T11:20:40.329Z,306.00
2022-10-19T11:21:40.626Z,306.00
2022-10-19T11:22:41.293Z,306.00
2022-10-19T11:23:40.608Z,310.00
2022-10-19T11:24:41.890Z,315.00
2022-10-19T11:25:40.560Z,312.00
2022-10-19T11:26:40.401Z,313.00
2022-10-19T11:27:40.681Z,317.00
2022-10-19T11:28:41.433Z,323.00
2022-10-19T11:29:40.661Z,326.00
2022-10-19T11:30:42.489Z,329.00
2022-10-19T11:31:40.328Z,334.00
2022-10-19T11:32:40.506Z,337.00
2022-10-19T11:33:40.331Z,341.00
2022-10-19T11:34:40.308Z,339.00
2022-10-19T11:35:40.130Z,336.00
2022-10-19T11:36:40.327Z,333.00
2022-10-19T11:37:49.454Z,331.00
2022-10-19T11:38:40.137Z,329.00
2022-10-19T11:39:40.479Z,327.00
2022-10-19T11:40:45.785Z,327.00
2022-10-19T11:41:40.196Z,324.00
2022-10-19T11:42:40.139Z,319.00
2022-10-19T11:43:40.126Z,320.00
2022-10-19T11:44:40.169Z,321.00
2022-10-19T11:45:40.086Z,325.00
2022-10-19T11:46:40.109Z,324.00
2022-10-19T11:47:40.130Z,324.00
2022-10-19T11:48:43.050Z,323.00
2022-10-19T11:49:40.009Z,324.00
2022-10-19T11:50:39.982Z,324.00
2022-10-19T11:51:39.981Z,322.00
2022-10-19T11:52:40.101Z,325.00
2022-10-19T11:53:39.947Z,325.00
2022-10-19T11:54:40.057Z,326.00
2022-10-19T11:55:40.296Z,326.00
2022-10-19T11:57:01.793Z,326.00
2022-10-19T11:57:39.903Z,330.00
2022-10-19T11:58:39.916Z,333.00
2022-10-19T11:59:39.913Z,334.00
2022-10-19T12:00:40.132Z,334.00
2022-10-19T12:01:39.786Z,334.00
2022-10-19T12:02:39.705Z,334.00
2022-10-19T12:03:39.671Z,338.00
2022-10-19T12:04:39.652Z,334.00
2022-10-19T12:05:39.672Z,334.00
2022-10-19T12:06:39.732Z,340.00
2022-10-19T12:07:39.724Z,343.00
2022-10-19T12:08:39.739Z,340.00
2022-10-19T12:09:39.652Z,337.00
2022-10-19T12:10:39.606Z,339.00
2022-10-19T12:11:39.649Z,343.00
2022-10-19T12:12:39.633Z,345.00
2022-10-19T12:13:39.621Z,346.00
2022-10-19T12:14:39.610Z,341.00
2022-10-19T12:15:39.549Z,337.00
2022-10-19T12:16:39.509Z,333.00
2022-10-19T12:17:40.366Z,332.00
2022-10-19T12:18:41.429Z,330.00
2022-10-19T12:19:42.574Z,331.00
2022-10-19T12:20:40.897Z,328.00
2022-10-19T12:21:48.341Z,326.00
2022-10-19T12:22:40.856Z,322.00
2022-10-19T12:23:42.661Z,318.00
2022-10-19T12:24:40.007Z,317.00
2022-10-19T12:25:43.492Z,313.00
2022-10-19T12:26:42.632Z,312.00
2022-10-19T12:27:42.282Z,313.00
2022-10-19T12:28:39.932Z,313.00
2022-10-19T12:30:01.805Z,316.00
2022-10-19T12:30:40.045Z,314.00
2022-10-19T12:31:42.772Z,317.00
2022-10-19T12:32:41.907Z,318.00
2022-10-19T12:33:41.047Z,320.00
2022-10-19T12:34:41.928Z,317.00
2022-10-19T12:35:41.672Z,316.00